Thorco Crystal — V2BP9 — position and weather

sailwx.info

Track history (hours):
 
Tides and Currents Weather Stations Pressure Air Temp Water Temp Dewpoint Dewpoint Depression Visibility Wind Speed Wind Dir Waves Ship Positions

Thorco Crystal

Last reported at 2014-Oct-18 06:25 UTC. Time now 2014-Oct-31 16:31 UTC.
Position N 29°21' W 094°46'.
Warning: this ship's position is 13 days out of date.

Length 145 m; draft 5.6 m.

Type: Cargo ship. MMSI: 304736000.

Date/timePositionNaut miles runAvg speedWind from/ knotsBaromVisibWave heightAir tempDewpointWater temp
2014-Oct-18 06:25N 29°21' W 094°46'1012.3
2014-Oct-18 05:33N 29°30' W 094°52'1313.3
2014-Oct-18 04:33N 29°42' W 094°59'7 7.1
2014-Oct-18 03:33N 29°44' W 095°07'6 5.6
2014-Oct-18 02:33N 29°44' W 095°13'3 0.1
2014-Oct-17 07:33N 29°44' W 095°16'0 0.0
2014-Oct-17 06:33N 29°44' W 095°16'0 0.0
2014-Oct-17 05:34N 29°44' W 095°16'0 0.0
2014-Oct-17 04:29N 29°44' W 095°16'0 0.0
2014-Oct-17 03:32N 29°44' W 095°16'0 0.0
2014-Oct-17 02:24N 29°44' W 095°16'0 0.3
2014-Oct-17 01:17N 29°44' W 095°16'5 6.1
2014-Oct-17 00:33N 29°45' W 095°11'7 7.2
2014-Oct-16 23:33N 29°44' W 095°03'1211.4
2014-Oct-16 22:32N 29°34' W 094°55'1413.6
2014-Oct-16 21:32N 29°22' W 094°48'14 1.9
2014-Oct-16 14:18N 29°17' W 094°34'  
2014-Oct-12 08:05N 25°55' W 079°31'7 9.9
2014-Oct-12 07:24N 26°02' W 079°30'  
2014-Oct-09 21:26N 34°22' W 076°37'1011.4
2014-Oct-09 20:33N 34°31' W 076°39'6 6.3
2014-Oct-09 19:32N 34°38' W 076°38'0 0.0
2014-Oct-09 18:32N 34°38' W 076°38'0 0.1
2014-Oct-09 17:32N 34°38' W 076°38'0 0.0
2014-Oct-09 16:32N 34°38' W 076°38'0 0.0
2014-Oct-09 15:32N 34°38' W 076°38'0 0.0
2014-Oct-09 14:32N 34°38' W 076°38'0 0.0
2014-Oct-09 13:32N 34°38' W 076°38'0 0.0
2014-Oct-09 12:32N 34°38' W 076°38'0 0.0
2014-Oct-09 11:29N 34°38' W 076°38'0 0.0
2014-Oct-09 10:32N 34°38' W 076°38'0 0.0
2014-Oct-09 09:29N 34°38' W 076°38'0 0.0
2014-Oct-09 08:32N 34°38' W 076°38'0 0.0
2014-Oct-09 07:32N 34°38' W 076°38'0 0.1
2014-Oct-09 06:32N 34°38' W 076°38'0 0.1
2014-Oct-09 05:32N 34°38' W 076°38'0 0.0
2014-Oct-09 04:32N 34°38' W 076°38'0 0.0
2014-Oct-09 03:32N 34°38' W 076°38'0 0.0
2014-Oct-09 02:32N 34°38' W 076°38'0 0.0
2014-Oct-09 01:32N 34°38' W 076°38'0 0.0
2014-Oct-09 00:32N 34°38' W 076°38'0 0.0
2014-Oct-08 23:32N 34°38' W 076°38'0 0.0
2014-Oct-08 22:32N 34°38' W 076°38'0 0.0
2014-Oct-08 21:32N 34°38' W 076°38'0 0.0
2014-Oct-08 20:29N 34°38' W 076°38'0 0.0
2014-Oct-08 19:32N 34°38' W 076°38'0 0.0
2014-Oct-08 18:29N 34°38' W 076°38'0 0.0
2014-Oct-08 17:32N 34°38' W 076°38'0 0.0
2014-Oct-08 16:32N 34°38' W 076°38'0 0.0
2014-Oct-08 15:32N 34°38' W 076°38'0 0.0
2014-Oct-08 14:32N 34°38' W 076°38'0 0.0
2014-Oct-08 13:32N 34°38' W 076°38'0 0.0
2014-Oct-08 12:32N 34°38' W 076°38'0 0.0
2014-Oct-08 11:32N 34°38' W 076°38'0 0.0
2014-Oct-08 10:32N 34°38' W 076°38'0 0.0
2014-Oct-08 09:32N 34°38' W 076°38'0 0.0
2014-Oct-08 08:32N 34°38' W 076°38'0 0.0
2014-Oct-08 07:32N 34°38' W 076°38'0 0.0
2014-Oct-08 06:32N 34°38' W 076°38'  
Track history (hours):
 
Tides and Currents Weather Stations Pressure Air Temp Water Temp Dewpoint Dewpoint Depression Visibility Wind Speed Wind Dir Waves Ship Positions

Thorco Crystal

Last reported at 2014-Oct-18 06:25 UTC. Time now 2014-Oct-31 16:31 UTC.
Position N 29°21' W 094°46'.
Warning: this ship's position is 13 days out of date.

Length 145 m; draft 5.6 m.

Type: Cargo ship. MMSI: 304736000.

Date/timePositionNaut miles runAvg speedWind from/ knotsBaromVisibWave heightAir tempDewpointWater temp
2014-Oct-18 06:25N 29°21' W 094°46'1012.3
2014-Oct-18 05:33N 29°30' W 094°52'1313.3
2014-Oct-18 04:33N 29°42' W 094°59'7 7.1
2014-Oct-18 03:33N 29°44' W 095°07'6 5.6
2014-Oct-18 02:33N 29°44' W 095°13'3 0.1
2014-Oct-17 07:33N 29°44' W 095°16'0 0.0
2014-Oct-17 06:33N 29°44' W 095°16'0 0.0
2014-Oct-17 05:34N 29°44' W 095°16'0 0.0
2014-Oct-17 04:29N 29°44' W 095°16'0 0.0
2014-Oct-17 03:32N 29°44' W 095°16'0 0.0
2014-Oct-17 02:24N 29°44' W 095°16'0 0.3
2014-Oct-17 01:17N 29°44' W 095°16'5 6.1
2014-Oct-17 00:33N 29°45' W 095°11'7 7.2
2014-Oct-16 23:33N 29°44' W 095°03'1211.4
2014-Oct-16 22:32N 29°34' W 094°55'1413.6
2014-Oct-16 21:32N 29°22' W 094°48'14 1.9
2014-Oct-16 14:18N 29°17' W 094°34'  
2014-Oct-12 08:05N 25°55' W 079°31'7 9.9
2014-Oct-12 07:24N 26°02' W 079°30'  
2014-Oct-09 21:26N 34°22' W 076°37'1011.4
2014-Oct-09 20:33N 34°31' W 076°39'6 6.3
2014-Oct-09 19:32N 34°38' W 076°38'0 0.0
2014-Oct-09 18:32N 34°38' W 076°38'0 0.1
2014-Oct-09 17:32N 34°38' W 076°38'0 0.0
2014-Oct-09 16:32N 34°38' W 076°38'0 0.0
2014-Oct-09 15:32N 34°38' W 076°38'0 0.0
2014-Oct-09 14:32N 34°38' W 076°38'0 0.0
2014-Oct-09 13:32N 34°38' W 076°38'0 0.0
2014-Oct-09 12:32N 34°38' W 076°38'0 0.0
2014-Oct-09 11:29N 34°38' W 076°38'0 0.0
2014-Oct-09 10:32N 34°38' W 076°38'0 0.0
2014-Oct-09 09:29N 34°38' W 076°38'0 0.0
2014-Oct-09 08:32N 34°38' W 076°38'0 0.0
2014-Oct-09 07:32N 34°38' W 076°38'0 0.1
2014-Oct-09 06:32N 34°38' W 076°38'0 0.1
2014-Oct-09 05:32N 34°38' W 076°38'0 0.0
2014-Oct-09 04:32N 34°38' W 076°38'0 0.0
2014-Oct-09 03:32N 34°38' W 076°38'0 0.0
2014-Oct-09 02:32N 34°38' W 076°38'0 0.0
2014-Oct-09 01:32N 34°38' W 076°38'0 0.0
2014-Oct-09 00:32N 34°38' W 076°38'0 0.0
2014-Oct-08 23:32N 34°38' W 076°38'0 0.0
2014-Oct-08 22:32N 34°38' W 076°38'0 0.0
2014-Oct-08 21:32N 34°38' W 076°38'0 0.0
2014-Oct-08 20:29N 34°38' W 076°38'0 0.0
2014-Oct-08 19:32N 34°38' W 076°38'0 0.0
2014-Oct-08 18:29N 34°38' W 076°38'0 0.0
2014-Oct-08 17:32N 34°38' W 076°38'0 0.0
2014-Oct-08 16:32N 34°38' W 076°38'0 0.0
2014-Oct-08 15:32N 34°38' W 076°38'0 0.0
2014-Oct-08 14:32N 34°38' W 076°38'0 0.0
2014-Oct-08 13:32N 34°38' W 076°38'0 0.0
2014-Oct-08 12:32N 34°38' W 076°38'0 0.0
2014-Oct-08 11:32N 34°38' W 076°38'0 0.0
2014-Oct-08 10:32N 34°38' W 076°38'0 0.0
2014-Oct-08 09:32N 34°38' W 076°38'0 0.0
2014-Oct-08 08:32N 34°38' W 076°38'0 0.0
2014-Oct-08 07:32N 34°38' W 076°38'0 0.0
2014-Oct-08 06:32N 34°38' W 076°38'  

Dump ship's entire track history